Aviation Digital Data Service (ADDS)

Output produced by METARs form (0039 UTC 21 July 2017)
found at http://aviationweather.gov/adds/metars/
 
KSBY 202328Z 2100/2124 21005KT P6SM SCT250 
     FM211500 28005KT P6SM SCT050